Time;durP1;ratioP1;P1;durP2;ratioP2;P2;SDS_P1;SDS_P2;PMS_P1;PMS_P2;Temp;Humidity;BMP_temperature;BMP_pressure;BME280_temperature;BME280_humidity;BME280_pressure;Samples;Min_cycle;Max_cycle;Signal;HPM_P1;HPM_P2
2021/01/23 00:00:48;;;;;;;36.07;14.47;;;2.90;99.90;;;;;;4379964;28;660162;-66
2021/01/23 00:03:35;;;;;;;34.03;14.77;;;2.90;99.90;;;;;;4364413;28;659598;-66
2021/01/23 00:06:23;;;;;;;32.67;12.87;;;2.90;99.90;;;;;;4380958;28;660538;-65
2021/01/23 00:09:10;;;;;;;36.93;14.50;;;3.00;99.90;;;;;;4350564;28;659445;-66
2021/01/23 00:11:57;;;;;;;38.37;15.13;;;3.00;99.90;;;;;;4365314;28;660871;-66
2021/01/23 00:14:44;;;;;;;40.00;16.83;;;3.10;99.90;;;;;;4351029;28;659547;-67
2021/01/23 00:17:32;;;;;;;37.60;15.77;;;3.20;99.90;;;;;;4361290;28;660323;-65
2021/01/23 00:20:20;;;;;;;46.83;18.70;;;3.20;99.90;;;;;;4349799;28;659640;-66
2021/01/23 00:23:07;;;;;;;40.13;17.10;;;3.20;99.90;;;;;;4367972;28;660745;-65
2021/01/23 00:25:54;;;;;;;43.30;16.27;;;3.30;99.90;;;;;;4354791;28;659683;-66
2021/01/23 00:28:41;;;;;;;40.00;16.50;;;3.30;99.90;;;;;;4366665;28;661342;-66
2021/01/23 00:31:28;;;;;;;36.27;14.87;;;3.40;99.90;;;;;;4369425;28;659992;-67
2021/01/23 00:34:16;;;;;;;33.70;14.23;;;3.40;99.90;;;;;;4356783;28;660011;-65
2021/01/23 00:37:03;;;;;;;36.90;13.10;;;3.40;99.90;;;;;;4389230;28;660091;-66
2021/01/23 00:39:50;;;;;;;39.40;14.20;;;3.50;99.90;;;;;;4359709;28;659590;-67
2021/01/23 00:42:37;;;;;;;37.27;14.93;;;3.50;99.90;;;;;;4382895;28;660412;-66
2021/01/23 00:45:25;;;;;;;34.53;14.33;;;3.60;99.90;;;;;;4366424;28;659851;-66
2021/01/23 00:48:12;;;;;;;39.23;15.47;;;3.60;99.90;;;;;;4377282;28;660760;-66
2021/01/23 00:51:00;;;;;;;41.70;18.00;;;3.70;99.90;;;;;;4358952;28;660762;-66
2021/01/23 00:53:47;;;;;;;36.77;15.67;;;3.80;99.90;;;;;;4375164;28;659458;-66
2021/01/23 00:56:35;;;;;;;35.83;14.47;;;3.90;99.90;;;;;;4352174;28;661085;-66
2021/01/23 00:59:22;;;;;;;33.27;13.23;;;4.00;99.90;;;;;;4385602;28;661018;-66
2021/01/23 01:02:09;;;;;;;37.73;13.97;;;4.00;99.90;;;;;;4358346;28;659861;-67
2021/01/23 01:04:56;;;;;;;35.33;14.30;;;4.10;99.90;;;;;;4367254;28;659775;-66
2021/01/23 01:07:44;;;;;;;38.65;14.90;;;4.20;99.90;;;;;;4367538;28;659931;-65
2021/01/23 01:10:31;;;;;;;32.37;13.17;;;4.20;99.90;;;;;;4348877;28;659934;-66
2021/01/23 01:13:18;;;;;;;35.43;12.97;;;4.20;99.90;;;;;;4367569;28;659786;-66
2021/01/23 01:16:06;;;;;;;30.10;12.77;;;4.30;99.90;;;;;;4344912;28;659153;-65
2021/01/23 01:18:53;;;;;;;28.30;12.17;;;4.20;99.90;;;;;;4377221;28;659939;-66
2021/01/23 01:21:40;;;;;;;31.87;14.60;;;4.30;99.90;;;;;;4344192;28;659602;-66
2021/01/23 01:24:28;;;;;;;32.13;14.30;;;4.30;99.90;;;;;;4369595;28;660564;-66
2021/01/23 01:27:15;;;;;;;31.30;13.27;;;4.40;99.90;;;;;;4344498;28;659645;-66
2021/01/23 01:30:02;;;;;;;27.47;12.43;;;4.30;99.90;;;;;;4372416;28;660128;-66
2021/01/23 01:32:49;;;;;;;33.17;11.70;;;4.30;99.90;;;;;;4361035;28;659341;-67
2021/01/23 01:35:36;;;;;;;25.02;11.38;;;4.30;99.90;;;;;;4389549;28;660953;-66
2021/01/23 01:38:23;;;;;;;33.60;11.45;;;4.30;99.90;;;;;;4382927;28;660308;-65
2021/01/23 01:41:11;;;;;;;23.60;11.43;;;4.40;99.90;;;;;;4358695;28;659317;-66
2021/01/23 01:43:58;;;;;;;40.53;15.30;;;4.30;99.90;;;;;;4381791;28;659395;-65
2021/01/23 01:46:45;;;;;;;36.50;13.03;;;4.30;99.90;;;;;;4369734;28;659614;-66
2021/01/23 01:49:32;;;;;;;33.03;13.53;;;4.30;99.90;;;;;;4360019;28;661250;-65
2021/01/23 01:52:19;;;;;;;32.80;12.05;;;4.30;99.90;;;;;;4360756;28;660572;-67
2021/01/23 01:55:07;;;;;;;24.42;10.23;;;4.30;99.90;;;;;;4364565;28;659118;-66
2021/01/23 01:57:55;;;;;;;30.57;11.57;;;4.30;99.90;;;;;;4358134;28;660457;-67
2021/01/23 02:00:42;;;;;;;32.27;11.13;;;4.30;99.90;;;;;;4373990;28;660878;-67
2021/01/23 02:04:00;;;;;;;25.50;9.13;;;4.30;99.90;;;;;;4359363;28;659574;-67
2021/01/23 02:06:57;;;;;;;21.57;8.90;;;4.40;99.90;;;;;;4296875;29;658868;-66
2021/01/23 02:09:58;;;;;;;20.00;9.00;;;4.40;99.90;;;;;;4286685;29;658346;-66
2021/01/23 02:12:54;;;;;;;18.17;8.47;;;4.40;99.90;;;;;;4281100;29;659483;-65
2021/01/23 02:15:44;;;;;;;20.50;8.97;;;4.30;99.90;;;;;;4278720;29;658788;-66
2021/01/23 02:18:35;;;;;;;18.97;8.80;;;4.30;99.90;;;;;;4293497;29;658457;-66
2021/01/23 02:21:43;;;;;;;24.60;8.87;;;4.40;99.90;;;;;;4303714;29;659200;-66
2021/01/23 02:24:30;;;;;;;18.80;9.40;;;4.30;99.90;;;;;;4263852;29;658875;-66
2021/01/23 02:27:42;;;;;;;26.07;10.03;;;4.30;99.90;;;;;;4312832;29;659517;-66
2021/01/23 02:30:31;;;;;;;33.67;11.73;;;4.40;99.90;;;;;;4277437;29;659800;-67
2021/01/23 02:33:19;;;;;;;49.13;17.33;;;4.30;99.90;;;;;;4314645;29;660018;-66
2021/01/23 02:36:06;;;;;;;55.27;18.57;;;4.30;99.90;;;;;;4295729;29;660242;-66
2021/01/23 02:38:53;;;;;;;29.13;12.20;;;4.30;99.90;;;;;;4316067;29;660149;-65
2021/01/23 02:41:40;;;;;;;35.33;11.57;;;4.30;99.90;;;;;;4298009;29;659509;-66
2021/01/23 02:44:27;;;;;;;35.60;11.53;;;4.40;99.90;;;;;;4318786;29;660984;-66
2021/01/23 02:47:14;;;;;;;28.13;10.93;;;4.40;99.90;;;;;;4341225;28;659622;-66
2021/01/23 02:50:02;;;;;;;24.53;10.00;;;4.50;99.90;;;;;;4399763;28;660355;-66
2021/01/23 02:52:53;;;;;;;26.53;9.53;;;4.50;99.90;;;;;;4356715;28;659593;-66
2021/01/23 02:55:42;;;;;;;24.67;9.90;;;4.50;99.90;;;;;;4369079;28;658520;-66
2021/01/23 02:58:31;;;;;;;23.27;8.53;;;4.60;99.90;;;;;;4372749;28;658688;-67
2021/01/23 03:01:19;;;;;;;24.15;8.52;;;4.60;99.90;;;;;;4395580;28;658616;-65
2021/01/23 03:04:06;;;;;;;18.17;7.77;;;4.60;99.90;;;;;;4344397;28;660131;-67
2021/01/23 03:06:54;;;;;;;21.50;8.33;;;4.70;99.90;;;;;;4364050;28;658796;-65
2021/01/23 03:09:40;;;;;;;21.37;9.40;;;4.70;99.90;;;;;;4365938;28;659802;-66
2021/01/23 03:12:28;;;;;;;20.67;8.93;;;4.80;99.90;;;;;;4371243;28;659127;-66
2021/01/23 03:15:15;;;;;;;19.93;8.23;;;4.90;99.90;;;;;;4349632;28;658900;-66
2021/01/23 03:18:02;;;;;;;23.77;8.63;;;4.90;99.90;;;;;;4374759;28;659168;-65
2021/01/23 03:20:49;;;;;;;25.13;8.80;;;5.00;99.90;;;;;;4383404;28;658412;-67
2021/01/23 03:23:37;;;;;;;22.57;9.13;;;5.00;99.90;;;;;;4380131;28;658551;-65
2021/01/23 03:26:24;;;;;;;19.93;8.80;;;5.10;99.90;;;;;;4376530;28;658699;-67
2021/01/23 03:29:11;;;;;;;18.47;7.27;;;5.10;99.90;;;;;;4371005;28;658708;-66
2021/01/23 03:31:58;;;;;;;15.27;6.72;;;5.10;99.90;;;;;;4374295;28;658874;-66
2021/01/23 03:34:45;;;;;;;21.80;6.97;;;5.10;99.90;;;;;;4343152;28;658309;-66
2021/01/23 03:37:32;;;;;;;16.20;6.70;;;5.10;99.90;;;;;;4362961;28;660161;-66
2021/01/23 03:40:20;;;;;;;15.63;6.70;;;5.10;99.90;;;;;;4350215;28;658717;-66
2021/01/23 03:43:07;;;;;;;17.80;7.77;;;5.10;99.90;;;;;;4363143;28;659645;-66
2021/01/23 03:45:54;;;;;;;20.50;7.90;;;5.10;99.90;;;;;;4354831;28;658912;-67
2021/01/23 03:48:41;;;;;;;20.90;8.23;;;5.10;99.90;;;;;;4361491;28;659658;-66
2021/01/23 03:51:28;;;;;;;14.02;7.00;;;5.10;99.90;;;;;;4368451;28;659526;-65
2021/01/23 03:54:15;;;;;;;18.92;7.25;;;5.10;99.90;;;;;;4344289;28;658520;-66
2021/01/23 03:57:03;;;;;;;23.57;8.57;;;5.20;99.90;;;;;;4367185;28;660205;-66
2021/01/23 03:59:50;;;;;;;22.43;9.93;;;5.30;99.90;;;;;;4352604;28;658448;-66
2021/01/23 04:02:38;;;;;;;17.13;8.33;;;5.40;99.90;;;;;;4370726;28;658603;-66
2021/01/23 04:05:24;;;;;;;18.40;7.33;;;5.50;99.90;;;;;;4345345;28;659415;-67
2021/01/23 04:08:11;;;;;;;14.23;7.23;;;5.60;99.90;;;;;;4365633;28;660304;-66
2021/01/23 04:10:59;;;;;;;19.23;7.37;;;5.60;99.90;;;;;;4364341;28;658652;-66
2021/01/23 04:13:46;;;;;;;15.77;6.33;;;5.60;99.90;;;;;;4346480;28;660000;-66
2021/01/23 04:16:33;;;;;;;18.87;7.27;;;5.70;99.90;;;;;;4369457;28;658324;-66
2021/01/23 04:19:20;;;;;;;15.13;6.97;;;6.10;99.90;;;;;;4350493;28;658680;-66
2021/01/23 04:22:07;;;;;;;18.90;7.90;;;6.30;99.90;;;;;;4382593;28;658349;-66
2021/01/23 04:24:54;;;;;;;18.93;7.97;;;6.20;99.90;;;;;;4368398;28;659136;-67
2021/01/23 04:27:42;;;;;;;17.43;7.23;;;5.90;99.90;;;;;;4377321;28;660090;-66
2021/01/23 04:30:30;;;;;;;16.60;7.03;;;5.70;99.90;;;;;;4388536;28;658755;-67
2021/01/23 04:33:17;;;;;;;22.37;9.40;;;5.60;99.90;;;;;;4382507;28;659883;-67
2021/01/23 04:36:06;;;;;;;16.67;8.03;;;5.60;99.90;;;;;;4376878;28;658846;-68
2021/01/23 04:38:54;;;;;;;15.23;7.53;;;5.50;99.90;;;;;;4381697;28;658845;-66
2021/01/23 04:41:41;;;;;;;14.97;7.07;;;5.40;99.90;;;;;;4364638;28;659779;-66
2021/01/23 04:44:28;;;;;;;15.30;7.00;;;5.40;99.90;;;;;;4376478;28;658579;-66
2021/01/23 04:47:15;;;;;;;16.03;7.50;;;5.40;99.90;;;;;;4367242;28;658697;-67
2021/01/23 04:50:04;;;;;;;16.13;7.63;;;5.40;99.90;;;;;;4361314;28;658961;-67
2021/01/23 04:52:51;;;;;;;17.07;7.60;;;5.30;99.90;;;;;;4346919;28;660156;-66
2021/01/23 04:55:38;;;;;;;18.97;6.80;;;5.40;99.90;;;;;;4364126;28;658382;-66
2021/01/23 04:58:25;;;;;;;19.20;7.27;;;5.40;99.90;;;;;;4328947;28;658420;-66
2021/01/23 05:01:15;;;;;;;16.70;7.77;;;5.40;99.90;;;;;;4385762;28;660192;-66
2021/01/23 05:04:03;;;;;;;20.00;9.23;;;5.30;99.90;;;;;;4339765;28;659046;-66
2021/01/23 05:06:53;;;;;;;21.57;9.13;;;5.30;99.90;;;;;;4351672;28;658503;-66
2021/01/23 05:09:40;;;;;;;18.60;8.00;;;5.30;99.90;;;;;;4350178;28;658864;-67
2021/01/23 05:12:37;;;;;;;20.03;8.00;;;5.80;99.90;;;;;;4370995;28;659098;-66
2021/01/23 05:15:25;;;;;;;20.50;8.60;;;5.70;99.90;;;;;;4331080;28;658683;-67
2021/01/23 05:18:13;;;;;;;24.50;9.87;;;5.60;99.90;;;;;;4385818;28;659742;-66
2021/01/23 05:21:01;;;;;;;26.27;9.53;;;5.50;99.90;;;;;;4345089;28;658653;-66
2021/01/23 05:23:51;;;;;;;22.20;8.17;;;5.40;99.90;;;;;;4386401;28;658442;-66
2021/01/23 05:26:38;;;;;;;15.43;6.93;;;5.40;99.90;;;;;;4362494;28;659367;-66
2021/01/23 05:29:26;;;;;;;19.20;7.67;;;5.40;99.90;;;;;;4365053;28;658534;-67
2021/01/23 05:32:16;;;;;;;16.27;7.47;;;5.30;99.90;;;;;;4376951;28;658910;-66
2021/01/23 05:35:13;;;;;;;15.37;6.80;;;5.30;99.90;;;;;;4367271;28;658701;-67
2021/01/23 05:38:12;;;;;;;17.10;6.90;;;5.30;99.90;;;;;;4330618;28;659970;-66
2021/01/23 05:41:12;;;;;;;14.87;7.40;;;5.30;99.90;;;;;;4341246;28;658661;-66
2021/01/23 05:43:59;;;;;;;17.73;7.90;;;5.20;99.90;;;;;;4344233;28;658700;-67
2021/01/23 05:46:46;;;;;;;18.80;7.40;;;5.20;99.90;;;;;;4375061;28;659626;-66
2021/01/23 05:49:33;;;;;;;16.80;7.70;;;5.20;99.90;;;;;;4353277;28;658564;-67
2021/01/23 05:52:20;;;;;;;24.00;8.43;;;5.20;99.90;;;;;;4366589;28;658588;-66
2021/01/23 05:55:09;;;;;;;16.30;7.37;;;5.30;99.90;;;;;;4367862;28;659586;-67
2021/01/23 05:57:56;;;;;;;17.70;7.20;;;5.30;99.90;;;;;;4354010;28;659111;-66
2021/01/23 06:00:43;;;;;;;18.73;6.80;;;5.40;99.90;;;;;;4372673;28;659283;-67
2021/01/23 06:03:33;;;;;;;15.43;7.40;;;5.40;99.90;;;;;;4347520;28;659218;-66
2021/01/23 06:06:20;;;;;;;17.83;8.30;;;5.40;99.90;;;;;;4350182;28;658510;-66
2021/01/23 06:09:07;;;;;;;27.23;8.33;;;5.30;99.90;;;;;;4371753;28;659543;-65
2021/01/23 06:11:55;;;;;;;20.20;7.90;;;5.40;99.90;;;;;;4352583;28;658538;-66
2021/01/23 06:14:42;;;;;;;19.63;8.23;;;5.60;99.90;;;;;;4390555;28;659890;-66
2021/01/23 06:17:45;;;;;;;23.67;8.67;;;5.50;99.90;;;;;;4348844;28;658500;-67
2021/01/23 06:20:52;;;;;;;21.30;9.43;;;5.40;99.90;;;;;;4344128;28;659652;-66
2021/01/23 06:23:50;;;;;;;34.20;10.20;;;5.40;99.90;;;;;;4344137;28;658932;-66
2021/01/23 06:26:57;;;;;;;25.20;9.73;;;5.50;99.90;;;;;;4365513;28;660613;-66
2021/01/23 06:29:44;;;;;;;24.17;8.73;;;5.60;99.90;;;;;;4322759;28;658532;-67
2021/01/23 06:32:32;;;;;;;22.60;9.13;;;5.80;99.90;;;;;;4388385;28;660203;-66
2021/01/23 06:35:20;;;;;;;18.90;8.57;;;5.90;99.90;;;;;;4377398;28;658665;-67
2021/01/23 06:38:13;;;;;;;12.37;5.57;;;5.80;99.90;;;;;;4392236;28;659505;-66
2021/01/23 06:41:27;;;;;;;15.50;6.50;;;5.80;99.90;;;;;;4349446;28;658716;-66
2021/01/23 06:44:17;;;;;;;17.67;6.50;;;5.80;99.90;;;;;;4329555;28;659215;-67
2021/01/23 06:47:04;;;;;;;12.27;6.10;;;5.90;99.90;;;;;;4353121;28;658397;-67
2021/01/23 06:49:51;;;;;;;14.90;6.87;;;5.80;99.90;;;;;;4373046;28;658569;-66
2021/01/23 06:52:48;;;;;;;16.48;7.72;;;5.80;99.90;;;;;;4369465;28;659476;-66
2021/01/23 06:55:46;;;;;;;14.50;6.10;;;5.70;99.90;;;;;;4330615;28;659087;-67
2021/01/23 06:58:37;;;;;;;15.23;6.83;;;5.70;99.90;;;;;;4355307;28;658805;-66
2021/01/23 07:01:25;;;;;;;14.43;6.20;;;5.80;99.90;;;;;;4339572;28;658509;-65
2021/01/23 07:04:12;;;;;;;23.80;7.73;;;5.90;99.90;;;;;;4389097;28;659490;-65
2021/01/23 07:06:59;;;;;;;19.93;8.30;;;5.70;99.90;;;;;;4354951;28;658966;-67
2021/01/23 07:09:48;;;;;;;19.87;8.77;;;5.80;99.90;;;;;;4382684;28;660119;-66
2021/01/23 07:12:36;;;;;;;21.07;8.67;;;5.80;99.90;;;;;;4362255;28;658846;-67
2021/01/23 07:15:35;;;;;;;18.90;8.83;;;5.90;99.90;;;;;;4371580;28;658926;-65
2021/01/23 07:18:23;;;;;;;28.90;9.37;;;5.80;99.90;;;;;;4354040;28;658986;-62
2021/01/23 07:21:10;;;;;;;31.67;11.53;;;5.80;99.90;;;;;;4353560;28;658712;-62
2021/01/23 07:23:57;;;;;;;14.50;8.00;;;5.80;99.90;;;;;;4369657;28;662207;-62
2021/01/23 07:26:44;;;;;;;23.73;10.13;;;5.90;99.90;;;;;;4332290;28;658542;-63
2021/01/23 07:29:31;;;;;;;20.57;8.60;;;5.80;99.90;;;;;;4383820;28;659558;-62
2021/01/23 07:32:18;;;;;;;27.73;13.43;;;5.80;99.90;;;;;;4386803;28;658419;-62
2021/01/23 07:35:07;;;;;;;26.40;11.60;;;5.80;99.90;;;;;;4360436;28;659781;-62
2021/01/23 07:37:55;;;;;;;24.53;11.10;;;5.80;99.90;;;;;;4369211;28;659549;-63
2021/01/23 07:40:42;;;;;;;23.80;10.37;;;5.80;99.90;;;;;;4372468;28;660953;-63
2021/01/23 07:43:29;;;;;;;26.10;11.67;;;5.60;99.90;;;;;;4347109;28;659788;-63
2021/01/23 07:46:16;;;;;;;28.40;11.80;;;5.60;99.90;;;;;;4366179;28;659756;-62
2021/01/23 07:49:04;;;;;;;24.73;11.80;;;5.60;99.90;;;;;;4368074;28;660372;-62
2021/01/23 07:51:52;;;;;;;28.87;12.43;;;5.70;99.90;;;;;;4369102;28;660444;-62
2021/01/23 07:54:49;;;;;;;37.20;17.43;;;5.70;99.90;;;;;;4359373;28;659687;-63
2021/01/23 07:57:36;;;;;;;32.67;14.20;;;5.60;99.90;;;;;;4347838;28;659593;-61
2021/01/23 08:00:23;;;;;;;30.73;13.23;;;5.60;99.90;;;;;;4370451;28;660485;-62
2021/01/23 08:03:10;;;;;;;21.77;10.37;;;5.70;99.90;;;;;;4347004;28;660261;-62
2021/01/23 08:05:57;;;;;;;21.33;10.33;;;5.70;99.90;;;;;;4363464;28;660832;-62
2021/01/23 08:08:45;;;;;;;23.03;10.37;;;5.70;99.90;;;;;;4357493;28;659234;-63
2021/01/23 08:11:36;;;;;;;19.17;8.90;;;5.80;99.90;;;;;;4386370;28;661533;-62
2021/01/23 08:14:23;;;;;;;26.05;9.18;;;6.00;99.90;;;;;;4364604;28;659117;-62
2021/01/23 08:17:10;;;;;;;18.58;9.55;;;5.90;99.90;;;;;;4360519;28;658709;-61
2021/01/23 08:19:57;;;;;;;18.53;9.07;;;5.90;99.90;;;;;;4368186;28;660863;-61
2021/01/23 08:23:06;;;;;;;19.30;9.37;;;5.90;99.90;;;;;;4349526;28;658226;-63
2021/01/23 08:25:54;;;;;;;21.83;10.93;;;5.80;99.90;;;;;;4355468;28;658388;-61
2021/01/23 08:28:42;;;;;;;26.67;12.43;;;5.80;99.90;;;;;;4355605;28;659563;-61
2021/01/23 08:31:29;;;;;;;29.53;12.90;;;5.80;99.90;;;;;;4358992;28;659557;-62
2021/01/23 08:34:16;;;;;;;28.33;13.20;;;5.70;99.90;;;;;;4382108;28;660716;-61
2021/01/23 08:37:03;;;;;;;26.30;12.20;;;5.70;99.90;;;;;;4367334;28;660066;-62
2021/01/23 08:39:51;;;;;;;19.93;9.93;;;5.70;99.90;;;;;;4346450;28;659565;-61
2021/01/23 08:42:40;;;;;;;21.13;10.87;;;5.70;99.90;;;;;;4368386;28;658250;-61
2021/01/23 08:45:27;;;;;;;27.40;11.93;;;5.70;99.90;;;;;;4340202;28;660791;-61
2021/01/23 08:48:16;;;;;;;31.57;13.13;;;5.70;99.90;;;;;;4358425;28;659643;-63
2021/01/23 08:51:03;;;;;;;23.60;11.50;;;5.70;99.90;;;;;;4370748;28;659610;-61
2021/01/23 08:53:50;;;;;;;32.67;14.60;;;5.70;99.90;;;;;;4351846;28;660504;-62
2021/01/23 08:56:37;;;;;;;61.07;30.73;;;5.70;99.90;;;;;;4377147;28;661993;-61
2021/01/23 08:59:25;;;;;;;37.17;16.45;;;5.70;99.90;;;;;;4354391;28;660204;-62
2021/01/23 09:02:14;;;;;;;41.40;19.37;;;5.70;99.90;;;;;;4376714;28;660999;-61
2021/01/23 09:05:01;;;;;;;40.33;19.13;;;5.80;99.90;;;;;;4357629;28;660812;-61
2021/01/23 09:07:48;;;;;;;43.15;19.35;;;5.70;99.90;;;;;;4378651;28;660528;-60
2021/01/23 09:10:35;;;;;;;41.92;18.63;;;5.70;99.90;;;;;;4362461;28;659772;-61
2021/01/23 09:13:22;;;;;;;59.80;23.53;;;5.70;99.90;;;;;;4376545;28;660243;-61
2021/01/23 09:16:10;;;;;;;142.27;48.83;;;5.70;99.90;;;;;;4361502;28;659391;-62
2021/01/23 09:18:57;;;;;;;47.53;19.20;;;5.70;99.90;;;;;;4372684;28;661139;-61
2021/01/23 09:21:44;;;;;;;35.63;15.77;;;5.70;99.90;;;;;;4356999;28;659687;-61
2021/01/23 09:24:31;;;;;;;35.70;16.67;;;5.70;99.90;;;;;;4380936;28;661270;-61
2021/01/23 09:27:18;;;;;;;44.67;18.57;;;5.70;99.90;;;;;;4363487;28;660266;-61
2021/01/23 09:30:06;;;;;;;45.00;19.63;;;5.70;99.90;;;;;;4338935;28;660308;-61
2021/01/23 09:32:54;;;;;;;37.83;18.57;;;5.70;99.90;;;;;;4379932;28;660248;-61
2021/01/23 09:35:41;;;;;;;38.13;19.10;;;5.80;99.90;;;;;;4361159;28;660834;-61
2021/01/23 09:38:28;;;;;;;46.83;19.37;;;5.90;99.90;;;;;;4379951;28;659410;-61
2021/01/23 09:41:15;;;;;;;40.37;18.40;;;5.90;99.90;;;;;;4361535;28;659554;-61
2021/01/23 09:44:02;;;;;;;40.73;17.93;;;6.20;99.90;;;;;;4382120;28;660862;-62
2021/01/23 09:46:49;;;;;;;42.00;19.75;;;6.30;99.90;;;;;;4355886;28;659704;-62
2021/01/23 09:49:37;;;;;;;36.23;16.03;;;6.40;99.90;;;;;;4374231;28;661073;-61
2021/01/23 09:52:24;;;;;;;32.33;15.30;;;6.50;99.90;;;;;;4359571;28;661283;-62
2021/01/23 09:55:12;;;;;;;34.05;16.77;;;6.60;99.90;;;;;;4379858;28;660833;-61
2021/01/23 09:57:59;;;;;;;28.03;11.20;;;6.80;99.90;;;;;;4356217;28;660310;-63
2021/01/23 10:00:47;;;;;;;28.33;14.47;;;6.80;99.90;;;;;;4383529;28;659554;-62
2021/01/23 10:03:34;;;;;;;26.40;11.30;;;6.90;99.90;;;;;;4366744;28;659525;-62
2021/01/23 10:06:22;;;;;;;26.60;12.27;;;7.00;99.90;;;;;;4383544;28;659299;-62
2021/01/23 10:09:09;;;;;;;22.07;9.53;;;7.20;99.90;;;;;;4363661;28;660308;-63
2021/01/23 10:11:57;;;;;;;30.93;13.00;;;7.40;99.90;;;;;;4381943;28;659786;-62
2021/01/23 10:14:45;;;;;;;58.53;21.57;;;7.60;99.90;;;;;;4362804;28;659585;-63
2021/01/23 10:17:32;;;;;;;27.93;12.70;;;7.50;99.90;;;;;;4379829;28;661463;-61
2021/01/23 10:20:19;;;;;;;28.00;12.00;;;7.60;99.90;;;;;;4355462;28;659716;-62
2021/01/23 10:23:07;;;;;;;30.60;13.00;;;7.60;99.90;;;;;;4388715;28;659510;-62
2021/01/23 10:25:54;;;;;;;38.87;15.37;;;7.60;99.90;;;;;;4371649;28;661244;-62
2021/01/23 10:28:41;;;;;;;34.77;14.63;;;7.70;99.90;;;;;;4380896;28;661553;-61
2021/01/23 10:31:28;;;;;;;38.43;15.70;;;7.90;99.90;;;;;;4381946;28;660067;-61
2021/01/23 10:34:15;;;;;;;34.37;13.97;;;8.00;99.90;;;;;;4365754;28;660397;-61
2021/01/23 10:37:02;;;;;;;33.10;12.83;;;8.00;99.90;;;;;;4380157;28;660847;-61
2021/01/23 10:39:50;;;;;;;10.30;4.27;;;8.40;99.90;;;;;;4362128;28;660304;-62
2021/01/23 10:42:37;;;;;;;11.60;5.30;;;8.70;99.90;;;;;;4392940;28;660357;-60
2021/01/23 10:45:24;;;;;;;5.78;2.20;;;9.00;99.90;;;;;;4381829;28;658904;-62
2021/01/23 10:48:11;;;;;;;8.43;3.40;;;9.30;95.70;;;;;;4371745;28;657435;-60
2021/01/23 10:50:59;;;;;;;7.87;3.53;;;9.50;93.10;;;;;;4397431;28;658440;-61
2021/01/23 10:53:46;;;;;;;5.63;2.33;;;9.70;91.30;;;;;;4367735;28;659010;-61
2021/01/23 10:56:34;;;;;;;9.63;3.20;;;9.80;90.30;;;;;;4388881;28;658504;-61
2021/01/23 10:59:21;;;;;;;4.20;1.90;;;9.90;89.70;;;;;;4376767;28;658728;-60
2021/01/23 11:02:08;;;;;;;5.23;2.20;;;9.80;89.70;;;;;;4399804;28;657181;-62
2021/01/23 11:04:56;;;;;;;7.80;2.57;;;9.80;88.70;;;;;;4370815;28;658647;-61
2021/01/23 11:07:43;;;;;;;6.90;2.87;;;10.00;87.00;;;;;;4399380;28;657572;-61
2021/01/23 11:10:30;;;;;;;6.23;3.27;;;10.00;86.20;;;;;;4370923;28;659373;-61
2021/01/23 11:13:18;;;;;;;9.03;2.97;;;9.90;88.70;;;;;;4398112;28;658512;-61
2021/01/23 11:16:06;;;;;;;5.80;2.93;;;9.90;88.00;;;;;;4376904;28;657927;-60
2021/01/23 11:18:54;;;;;;;8.87;3.33;;;9.90;88.00;;;;;;4398424;28;658567;-61
2021/01/23 11:21:41;;;;;;;7.73;3.10;;;9.80;87.20;;;;;;4376279;28;659055;-61
2021/01/23 11:24:29;;;;;;;16.70;5.77;;;9.60;89.40;;;;;;4399398;28;658275;-61
2021/01/23 11:27:16;;;;;;;14.37;6.23;;;9.50;90.60;;;;;;4374935;28;660952;-61
2021/01/23 11:30:05;;;;;;;29.13;11.40;;;9.30;90.30;;;;;;4396964;28;658877;-61
2021/01/23 11:32:52;;;;;;;20.67;8.27;;;9.00;92.20;;;;;;4373975;28;660865;-61
2021/01/23 11:35:40;;;;;;;13.37;5.33;;;8.90;93.00;;;;;;4369633;28;658491;-62
2021/01/23 11:38:27;;;;;;;12.43;5.40;;;8.80;93.20;;;;;;4398138;28;660595;-60
2021/01/23 11:41:14;;;;;;;23.83;8.27;;;8.70;94.40;;;;;;4373681;28;658544;-62
2021/01/23 11:44:01;;;;;;;43.13;16.93;;;8.60;96.40;;;;;;4391528;28;658500;-60
2021/01/23 11:46:49;;;;;;;65.37;23.97;;;8.90;94.40;;;;;;4388145;28;659390;-61
2021/01/23 11:49:37;;;;;;;56.40;22.63;;;9.00;94.50;;;;;;4367355;28;660326;-61
2021/01/23 11:52:24;;;;;;;44.77;17.60;;;8.80;96.30;;;;;;4376980;28;661280;-62
2021/01/23 11:55:11;;;;;;;51.00;20.90;;;8.80;98.40;;;;;;4381770;28;660354;-61
2021/01/23 11:58:01;;;;;;;52.33;20.87;;;8.70;99.60;;;;;;4377228;28;659537;-61
2021/01/23 12:00:48;;;;;;;86.03;29.97;;;8.60;99.90;;;;;;4355108;28;660940;-61
2021/01/23 12:03:36;;;;;;;82.50;31.57;;;8.70;99.90;;;;;;4359340;28;659566;-60
2021/01/23 12:06:23;;;;;;;106.23;43.27;;;8.90;99.90;;;;;;4377561;28;659565;-61
2021/01/23 12:09:10;;;;;;;88.33;36.43;;;9.00;99.90;;;;;;4358028;28;661283;-61
2021/01/23 12:11:58;;;;;;;73.33;30.23;;;9.20;97.00;;;;;;4378084;28;661279;-61
2021/01/23 12:14:45;;;;;;;66.93;27.53;;;9.20;97.10;;;;;;4358898;28;659722;-62
2021/01/23 12:17:33;;;;;;;53.43;22.23;;;9.20;96.10;;;;;;4377576;28;661190;-61
2021/01/23 12:20:21;;;;;;;49.50;20.73;;;9.20;96.90;;;;;;4359422;28;659634;-61
2021/01/23 12:23:09;;;;;;;40.30;17.60;;;9.30;94.50;;;;;;4377962;28;659591;-61
2021/01/23 12:25:56;;;;;;;34.07;14.00;;;9.40;93.90;;;;;;4378531;28;661316;-61
2021/01/23 12:28:44;;;;;;;33.80;14.43;;;9.30;94.10;;;;;;4375252;28;660649;-63
2021/01/23 12:31:31;;;;;;;39.10;16.70;;;9.30;93.60;;;;;;4381721;28;661514;-60
2021/01/23 12:34:19;;;;;;;39.33;15.53;;;9.30;94.10;;;;;;4377681;28;659591;-61
2021/01/23 12:37:07;;;;;;;32.20;13.33;;;9.40;92.20;;;;;;4354719;28;662229;-61
2021/01/23 12:39:54;;;;;;;23.93;10.23;;;9.60;91.90;;;;;;4366449;28;659741;-62
2021/01/23 12:42:41;;;;;;;19.50;8.37;;;9.80;92.00;;;;;;4381392;28;660263;-60
2021/01/23 12:45:28;;;;;;;17.27;7.97;;;10.20;90.40;;;;;;4378367;28;659422;-61
2021/01/23 12:48:15;;;;;;;18.47;7.93;;;10.40;87.00;;;;;;4358310;28;660315;-61
2021/01/23 12:51:03;;;;;;;27.23;10.70;;;10.80;84.80;;;;;;4377423;28;660928;-61
2021/01/23 12:53:50;;;;;;;22.00;9.67;;;10.80;80.80;;;;;;4357727;28;660666;-62
2021/01/23 12:56:37;;;;;;;33.53;12.70;;;10.60;81.50;;;;;;4377407;28;660346;-61
2021/01/23 12:59:24;;;;;;;39.03;14.53;;;10.50;81.50;;;;;;4351735;28;660970;-61
2021/01/23 13:02:12;;;;;;;34.47;13.53;;;10.30;82.30;;;;;;4359240;28;662397;-61
2021/01/23 13:04:59;;;;;;;31.87;12.13;;;10.10;83.00;;;;;;4357487;28;660640;-62
2021/01/23 13:07:47;;;;;;;41.97;15.07;;;9.80;86.10;;;;;;4363029;28;660625;-62
2021/01/23 13:10:38;;;;;;;42.00;16.37;;;9.70;87.60;;;;;;4341698;28;660561;-62
2021/01/23 13:13:25;;;;;;;99.43;35.13;;;9.60;86.50;;;;;;4340104;28;660328;-61
2021/01/23 13:16:17;;;;;;;54.43;19.13;;;9.40;88.30;;;;;;4360637;28;660549;-61
2021/01/23 13:19:04;;;;;;;27.52;11.23;;;9.30;89.70;;;;;;4334251;28;660356;-62
2021/01/23 13:21:52;;;;;;;21.43;9.73;;;9.50;88.40;;;;;;4360078;28;662116;-61
2021/01/23 13:24:39;;;;;;;21.97;9.20;;;9.50;87.70;;;;;;4352698;28;658648;-62
2021/01/23 13:27:27;;;;;;;16.17;7.13;;;9.40;88.80;;;;;;4364589;28;658634;-61
2021/01/23 13:30:15;;;;;;;15.17;7.13;;;9.30;89.80;;;;;;4345919;28;658545;-62
2021/01/23 13:33:04;;;;;;;15.87;7.23;;;9.20;90.00;;;;;;4364934;28;659207;-60
2021/01/23 13:35:51;;;;;;;51.33;20.87;;;9.10;90.70;;;;;;4338635;28;660539;-61
2021/01/23 13:38:38;;;;;;;59.00;22.20;;;9.10;91.20;;;;;;4361361;28;660347;-61
2021/01/23 13:41:25;;;;;;;57.80;22.70;;;9.00;91.80;;;;;;4340255;28;661271;-61
2021/01/23 13:44:13;;;;;;;94.33;35.93;;;8.90;91.00;;;;;;4364373;28;660463;-60
2021/01/23 13:47:00;;;;;;;133.83;49.17;;;8.90;92.30;;;;;;4339760;28;660555;-61
2021/01/23 13:49:47;;;;;;;174.70;62.00;;;8.70;93.00;;;;;;4359997;28;661967;-60
2021/01/23 13:52:34;;;;;;;159.43;59.93;;;8.60;94.00;;;;;;4342445;28;660722;-62
2021/01/23 13:55:24;;;;;;;145.40;56.80;;;8.50;95.60;;;;;;4367028;28;661412;-61
2021/01/23 13:58:11;;;;;;;184.47;67.93;;;8.50;96.60;;;;;;4339476;28;662580;-61
2021/01/23 14:01:00;;;;;;;163.53;61.83;;;8.40;97.60;;;;;;4362033;28;661003;-62
2021/01/23 14:03:50;;;;;;;135.80;51.50;;;8.30;99.40;;;;;;4361823;28;662266;-61
2021/01/23 14:06:37;;;;;;;107.25;42.83;;;8.20;99.90;;;;;;4339876;28;662377;-61
2021/01/23 14:09:24;;;;;;;85.45;35.83;;;8.10;99.90;;;;;;4343797;28;660891;-62
2021/01/23 14:12:11;;;;;;;80.57;31.63;;;8.00;99.90;;;;;;4364001;28;661701;-61
2021/01/23 14:14:58;;;;;;;75.77;28.43;;;8.00;99.90;;;;;;4363959;28;660932;-61
2021/01/23 14:17:46;;;;;;;93.03;35.97;;;7.90;99.90;;;;;;4345161;28;659693;-61